sensor_id;sensor_type;location;lat;lon;timestamp;temperature;humidity
64638;HTU21D;51049;45.046;38.950;2023-05-07T00:00:21;17.85;56.05
64638;HTU21D;51049;45.046;38.950;2023-05-07T00:02:47;17.83;56.16
64638;HTU21D;51049;45.046;38.950;2023-05-07T00:05:13;17.81;56.42
64638;HTU21D;51049;45.046;38.950;2023-05-07T00:07:40;17.78;56.75
64638;HTU21D;51049;45.046;38.950;2023-05-07T00:10:06;17.74;56.50
64638;HTU21D;51049;45.046;38.950;2023-05-07T00:12:33;17.70;56.77
64638;HTU21D;51049;45.046;38.950;2023-05-07T00:15:03;17.67;56.62
64638;HTU21D;51049;45.046;38.950;2023-05-07T00:17:29;17.64;56.88
64638;HTU21D;51049;45.046;38.950;2023-05-07T00:19:55;17.60;56.63
64638;HTU21D;51049;45.046;38.950;2023-05-07T00:22:21;17.58;56.93
64638;HTU21D;51049;45.046;38.950;2023-05-07T00:24:47;17.54;56.88
64638;HTU21D;51049;45.046;38.950;2023-05-07T00:27:13;17.50;57.06
64638;HTU21D;51049;45.046;38.950;2023-05-07T00:29:39;17.47;57.13
64638;HTU21D;51049;45.046;38.950;2023-05-07T00:32:05;17.44;57.29
64638;HTU21D;51049;45.046;38.950;2023-05-07T00:34:31;17.39;57.17
64638;HTU21D;51049;45.046;38.950;2023-05-07T00:36:57;17.35;57.34
64638;HTU21D;51049;45.046;38.950;2023-05-07T00:39:23;17.32;57.48
64638;HTU21D;51049;45.046;38.950;2023-05-07T00:41:49;17.29;57.55
64638;HTU21D;51049;45.046;38.950;2023-05-07T00:44:15;17.25;57.69
64638;HTU21D;51049;45.046;38.950;2023-05-07T00:46:40;17.23;57.61
64638;HTU21D;51049;45.046;38.950;2023-05-07T00:49:07;17.21;57.78
64638;HTU21D;51049;45.046;38.950;2023-05-07T00:51:33;17.17;57.93
64638;HTU21D;51049;45.046;38.950;2023-05-07T00:54:02;17.16;58.30
64638;HTU21D;51049;45.046;38.950;2023-05-07T00:56:28;17.11;58.15
64638;HTU21D;51049;45.046;38.950;2023-05-07T00:58:54;17.08;58.23
64638;HTU21D;51049;45.046;38.950;2023-05-07T01:01:20;17.05;58.20
64638;HTU21D;51049;45.046;38.950;2023-05-07T01:03:47;17.04;58.54
64638;HTU21D;51049;45.046;38.950;2023-05-07T01:06:13;17.01;58.75
64638;HTU21D;51049;45.046;38.950;2023-05-07T01:08:42;16.96;58.92
64638;HTU21D;51049;45.046;38.950;2023-05-07T01:11:09;16.91;59.22
64638;HTU21D;51049;45.046;38.950;2023-05-07T01:13:36;16.87;59.37
64638;HTU21D;51049;45.046;38.950;2023-05-07T01:16:04;16.84;59.44
64638;HTU21D;51049;45.046;38.950;2023-05-07T01:18:30;16.79;59.36
64638;HTU21D;51049;45.046;38.950;2023-05-07T01:20:58;16.75;59.91
64638;HTU21D;51049;45.046;38.950;2023-05-07T01:23:27;16.71;59.99
64638;HTU21D;51049;45.046;38.950;2023-05-07T01:25:54;16.66;59.78
64638;HTU21D;51049;45.046;38.950;2023-05-07T01:28:22;16.63;59.77
64638;HTU21D;51049;45.046;38.950;2023-05-07T01:30:52;16.59;60.02
64638;HTU21D;51049;45.046;38.950;2023-05-07T01:33:21;16.55;59.86
64638;HTU21D;51049;45.046;38.950;2023-05-07T01:35:53;16.50;60.32
64638;HTU21D;51049;45.046;38.950;2023-05-07T01:38:21;16.47;60.23
64638;HTU21D;51049;45.046;38.950;2023-05-07T01:40:48;16.43;60.94
64638;HTU21D;51049;45.046;38.950;2023-05-07T01:43:14;16.37;60.44
64638;HTU21D;51049;45.046;38.950;2023-05-07T01:45:41;16.34;60.54
64638;HTU21D;51049;45.046;38.950;2023-05-07T01:48:09;16.32;60.89
64638;HTU21D;51049;45.046;38.950;2023-05-07T01:50:35;16.27;60.93
64638;HTU21D;51049;45.046;38.950;2023-05-07T01:53:02;16.25;60.89
64638;HTU21D;51049;45.046;38.950;2023-05-07T01:55:29;16.21;60.90
64638;HTU21D;51049;45.046;38.950;2023-05-07T01:57:54;16.18;60.99
64638;HTU21D;51049;45.046;38.950;2023-05-07T02:00:21;16.15;60.72
64638;HTU21D;51049;45.046;38.950;2023-05-07T02:02:47;16.12;61.38
64638;HTU21D;51049;45.046;38.950;2023-05-07T02:05:39;16.07;61.24
64638;HTU21D;51049;45.046;38.950;2023-05-07T02:08:11;16.03;61.76
64638;HTU21D;51049;45.046;38.950;2023-05-07T02:10:37;16.00;61.60
64638;HTU21D;51049;45.046;38.950;2023-05-07T02:13:07;15.97;61.75
64638;HTU21D;51049;45.046;38.950;2023-05-07T02:15:34;15.95;61.91
64638;HTU21D;51049;45.046;38.950;2023-05-07T02:20:29;15.86;61.80
64638;HTU21D;51049;45.046;38.950;2023-05-07T02:22:55;15.84;61.97
64638;HTU21D;51049;45.046;38.950;2023-05-07T02:25:22;15.78;61.69
64638;HTU21D;51049;45.046;38.950;2023-05-07T02:27:47;15.76;61.74
64638;HTU21D;51049;45.046;38.950;2023-05-07T02:30:14;15.73;61.63
64638;HTU21D;51049;45.046;38.950;2023-05-07T02:32:41;15.71;61.54
64638;HTU21D;51049;45.046;38.950;2023-05-07T02:35:07;15.68;62.17
64638;HTU21D;51049;45.046;38.950;2023-05-07T02:37:33;15.67;61.91
64638;HTU21D;51049;45.046;38.950;2023-05-07T02:40:00;15.62;61.73
64638;HTU21D;51049;45.046;38.950;2023-05-07T02:42:26;15.58;61.89
64638;HTU21D;51049;45.046;38.950;2023-05-07T02:44:52;15.56;62.37
64638;HTU21D;51049;45.046;38.950;2023-05-07T02:47:19;15.54;62.24
64638;HTU21D;51049;45.046;38.950;2023-05-07T02:49:45;15.49;62.40
64638;HTU21D;51049;45.046;38.950;2023-05-07T02:52:11;15.47;61.92
64638;HTU21D;51049;45.046;38.950;2023-05-07T02:54:37;15.46;61.94
64638;HTU21D;51049;45.046;38.950;2023-05-07T02:57:03;15.44;62.08
64638;HTU21D;51049;45.046;38.950;2023-05-07T02:59:29;15.41;61.94
64638;HTU21D;51049;45.046;38.950;2023-05-07T03:01:56;15.40;62.26
64638;HTU21D;51049;45.046;38.950;2023-05-07T03:04:22;15.38;62.21
64638;HTU21D;51049;45.046;38.950;2023-05-07T03:06:48;15.37;62.16
64638;HTU21D;51049;45.046;38.950;2023-05-07T03:09:14;15.33;62.05
64638;HTU21D;51049;45.046;38.950;2023-05-07T03:11:40;15.32;62.15
64638;HTU21D;51049;45.046;38.950;2023-05-07T03:14:06;15.31;62.05
64638;HTU21D;51049;45.046;38.950;2023-05-07T03:16:32;15.28;62.27
64638;HTU21D;51049;45.046;38.950;2023-05-07T03:18:58;15.27;62.25
64638;HTU21D;51049;45.046;38.950;2023-05-07T03:21:24;15.26;62.60
64638;HTU21D;51049;45.046;38.950;2023-05-07T03:23:52;15.25;62.38
64638;HTU21D;51049;45.046;38.950;2023-05-07T03:26:18;15.24;62.44
64638;HTU21D;51049;45.046;38.950;2023-05-07T03:28:44;15.25;62.30
64638;HTU21D;51049;45.046;38.950;2023-05-07T03:31:12;15.26;62.39
64638;HTU21D;51049;45.046;38.950;2023-05-07T03:33:52;15.26;62.37
64638;HTU21D;51049;45.046;38.950;2023-05-07T03:36:19;15.27;62.23
64638;HTU21D;51049;45.046;38.950;2023-05-07T03:38:45;15.27;62.23
64638;HTU21D;51049;45.046;38.950;2023-05-07T03:41:11;15.28;62.07
64638;HTU21D;51049;45.046;38.950;2023-05-07T03:43:38;15.29;62.08
64638;HTU21D;51049;45.046;38.950;2023-05-07T03:46:07;15.29;62.37
64638;HTU21D;51049;45.046;38.950;2023-05-07T03:48:33;15.28;62.13
64638;HTU21D;51049;45.046;38.950;2023-05-07T03:50:59;15.28;62.12
64638;HTU21D;51049;45.046;38.950;2023-05-07T03:53:29;15.28;62.25
64638;HTU21D;51049;45.046;38.950;2023-05-07T03:55:55;15.26;62.17
64638;HTU21D;51049;45.046;38.950;2023-05-07T03:58:22;15.27;62.15
64638;HTU21D;51049;45.046;38.950;2023-05-07T04:00:48;15.27;62.03
64638;HTU21D;51049;45.046;38.950;2023-05-07T04:03:21;15.28;61.99
64638;HTU21D;51049;45.046;38.950;2023-05-07T04:05:47;15.29;61.99
64638;HTU21D;51049;45.046;38.950;2023-05-07T04:08:14;15.28;61.94
64638;HTU21D;51049;45.046;38.950;2023-05-07T04:10:45;15.31;61.90
64638;HTU21D;51049;45.046;38.950;2023-05-07T04:13:12;15.36;61.86
64638;HTU21D;51049;45.046;38.950;2023-05-07T04:15:38;15.38;61.90
64638;HTU21D;51049;45.046;38.950;2023-05-07T04:18:08;15.36;62.07
64638;HTU21D;51049;45.046;38.950;2023-05-07T04:20:35;15.33;61.89
64638;HTU21D;51049;45.046;38.950;2023-05-07T04:23:07;15.34;61.86
64638;HTU21D;51049;45.046;38.950;2023-05-07T04:25:34;15.34;61.99
64638;HTU21D;51049;45.046;38.950;2023-05-07T04:28:07;15.33;61.87
64638;HTU21D;51049;45.046;38.950;2023-05-07T04:30:33;15.36;61.75
64638;HTU21D;51049;45.046;38.950;2023-05-07T04:33:01;15.38;61.70
64638;HTU21D;51049;45.046;38.950;2023-05-07T04:35:29;15.40;61.66
64638;HTU21D;51049;45.046;38.950;2023-05-07T04:37:56;15.38;61.63
64638;HTU21D;51049;45.046;38.950;2023-05-07T04:40:22;15.38;61.60
64638;HTU21D;51049;45.046;38.950;2023-05-07T04:42:48;15.37;61.59
64638;HTU21D;51049;45.046;38.950;2023-05-07T04:45:14;15.34;61.54
64638;HTU21D;51049;45.046;38.950;2023-05-07T04:47:43;15.33;61.52
64638;HTU21D;51049;45.046;38.950;2023-05-07T04:50:10;15.29;61.56
64638;HTU21D;51049;45.046;38.950;2023-05-07T04:52:37;15.27;61.59
64638;HTU21D;51049;45.046;38.950;2023-05-07T04:55:04;15.23;61.63
64638;HTU21D;51049;45.046;38.950;2023-05-07T04:57:35;15.19;61.62
64638;HTU21D;51049;45.046;38.950;2023-05-07T05:00:01;15.17;61.63
64638;HTU21D;51049;45.046;38.950;2023-05-07T05:02:31;15.14;61.65
64638;HTU21D;51049;45.046;38.950;2023-05-07T05:04:57;15.15;61.63
64638;HTU21D;51049;45.046;38.950;2023-05-07T05:07:24;15.14;61.70
64638;HTU21D;51049;45.046;38.950;2023-05-07T05:09:51;15.15;61.68
64638;HTU21D;51049;45.046;38.950;2023-05-07T05:12:17;15.18;61.67
64638;HTU21D;51049;45.046;38.950;2023-05-07T05:14:43;15.21;61.71
64638;HTU21D;51049;45.046;38.950;2023-05-07T05:17:10;15.21;61.68
64638;HTU21D;51049;45.046;38.950;2023-05-07T05:19:36;15.23;61.66
64638;HTU21D;51049;45.046;38.950;2023-05-07T05:22:02;15.23;61.61
64638;HTU21D;51049;45.046;38.950;2023-05-07T05:24:32;15.26;61.65
64638;HTU21D;51049;45.046;38.950;2023-05-07T05:26:59;15.28;61.61
64638;HTU21D;51049;45.046;38.950;2023-05-07T05:29:30;15.29;61.60
64638;HTU21D;51049;45.046;38.950;2023-05-07T05:31:57;15.33;61.67
64638;HTU21D;51049;45.046;38.950;2023-05-07T05:34:24;15.39;61.62
64638;HTU21D;51049;45.046;38.950;2023-05-07T05:36:51;15.41;61.52
64638;HTU21D;51049;45.046;38.950;2023-05-07T05:39:18;15.42;61.53
64638;HTU21D;51049;45.046;38.950;2023-05-07T05:41:45;15.42;61.55
64638;HTU21D;51049;45.046;38.950;2023-05-07T05:44:12;15.44;61.54
64638;HTU21D;51049;45.046;38.950;2023-05-07T05:46:40;15.46;61.54
64638;HTU21D;51049;45.046;38.950;2023-05-07T05:49:06;15.52;61.54
64638;HTU21D;51049;45.046;38.950;2023-05-07T05:51:33;15.59;61.49
64638;HTU21D;51049;45.046;38.950;2023-05-07T05:53:59;15.67;61.37
64638;HTU21D;51049;45.046;38.950;2023-05-07T05:56:25;15.73;61.23
64638;HTU21D;51049;45.046;38.950;2023-05-07T05:58:51;15.78;61.16
64638;HTU21D;51049;45.046;38.950;2023-05-07T06:01:18;15.86;61.19
64638;HTU21D;51049;45.046;38.950;2023-05-07T06:03:44;15.95;61.12
64638;HTU21D;51049;45.046;38.950;2023-05-07T06:06:13;16.02;60.99
64638;HTU21D;51049;45.046;38.950;2023-05-07T06:08:42;16.11;60.92
64638;HTU21D;51049;45.046;38.950;2023-05-07T06:11:09;16.19;60.89
64638;HTU21D;51049;45.046;38.950;2023-05-07T06:13:37;16.30;60.84
64638;HTU21D;51049;45.046;38.950;2023-05-07T06:16:04;16.42;60.69
64638;HTU21D;51049;45.046;38.950;2023-05-07T06:18:30;16.50;60.57
64638;HTU21D;51049;45.046;38.950;2023-05-07T06:20:56;16.55;60.53
64638;HTU21D;51049;45.046;38.950;2023-05-07T06:23:25;16.62;60.43
64638;HTU21D;51049;45.046;38.950;2023-05-07T06:25:51;16.66;60.38
64638;HTU21D;51049;45.046;38.950;2023-05-07T06:28:20;16.73;60.35
64638;HTU21D;51049;45.046;38.950;2023-05-07T06:30:46;16.80;60.28
64638;HTU21D;51049;45.046;38.950;2023-05-07T06:33:14;16.86;60.18
64638;HTU21D;51049;45.046;38.950;2023-05-07T06:35:40;16.92;60.12
64638;HTU21D;51049;45.046;38.950;2023-05-07T06:38:07;16.98;60.05
64638;HTU21D;51049;45.046;38.950;2023-05-07T06:40:33;16.99;59.97
64638;HTU21D;51049;45.046;38.950;2023-05-07T06:43:00;17.01;59.99
64638;HTU21D;51049;45.046;38.950;2023-05-07T06:45:39;17.04;60.01
64638;HTU21D;51049;45.046;38.950;2023-05-07T06:48:07;17.08;59.93
64638;HTU21D;51049;45.046;38.950;2023-05-07T06:50:43;17.08;59.86
64638;HTU21D;51049;45.046;38.950;2023-05-07T06:53:10;17.08;59.86
64638;HTU21D;51049;45.046;38.950;2023-05-07T06:55:36;17.07;59.86
64638;HTU21D;51049;45.046;38.950;2023-05-07T06:58:05;17.04;59.84
64638;HTU21D;51049;45.046;38.950;2023-05-07T07:00:32;17.03;59.90
64638;HTU21D;51049;45.046;38.950;2023-05-07T07:02:58;17.00;59.90
64638;HTU21D;51049;45.046;38.950;2023-05-07T07:05:27;16.98;60.02
64638;HTU21D;51049;45.046;38.950;2023-05-07T07:07:53;17.02;60.01
64638;HTU21D;51049;45.046;38.950;2023-05-07T07:10:20;17.03;60.03
64638;HTU21D;51049;45.046;38.950;2023-05-07T07:12:49;17.00;60.02
64638;HTU21D;51049;45.046;38.950;2023-05-07T07:15:15;17.02;60.02
64638;HTU21D;51049;45.046;38.950;2023-05-07T07:17:42;17.02;60.04
64638;HTU21D;51049;45.046;38.950;2023-05-07T07:20:08;17.04;60.04
64638;HTU21D;51049;45.046;38.950;2023-05-07T07:22:34;17.09;60.10
64638;HTU21D;51049;45.046;38.950;2023-05-07T07:25:00;17.19;60.06
64638;HTU21D;51049;45.046;38.950;2023-05-07T07:27:26;17.26;59.99
64638;HTU21D;51049;45.046;38.950;2023-05-07T07:29:52;17.31;59.89
64638;HTU21D;51049;45.046;38.950;2023-05-07T07:32:18;17.31;59.82
64638;HTU21D;51049;45.046;38.950;2023-05-07T07:34:45;17.32;59.88
64638;HTU21D;51049;45.046;38.950;2023-05-07T07:37:12;17.36;59.87
64638;HTU21D;51049;45.046;38.950;2023-05-07T07:39:38;17.43;59.89
64638;HTU21D;51049;45.046;38.950;2023-05-07T07:42:05;17.54;59.83
64638;HTU21D;51049;45.046;38.950;2023-05-07T07:44:32;17.67;59.78
64638;HTU21D;51049;45.046;38.950;2023-05-07T07:47:03;17.79;59.50
64638;HTU21D;51049;45.046;38.950;2023-05-07T07:49:29;17.84;59.35
64638;HTU21D;51049;45.046;38.950;2023-05-07T07:51:58;17.90;59.38
64638;HTU21D;51049;45.046;38.950;2023-05-07T07:54:25;17.99;59.41
64638;HTU21D;51049;45.046;38.950;2023-05-07T07:56:52;18.11;59.41
64638;HTU21D;51049;45.046;38.950;2023-05-07T07:59:18;18.23;59.25
64638;HTU21D;51049;45.046;38.950;2023-05-07T08:01:48;18.32;59.10
64638;HTU21D;51049;45.046;38.950;2023-05-07T08:04:16;18.41;58.99
64638;HTU21D;51049;45.046;38.950;2023-05-07T08:06:43;18.50;58.97
64638;HTU21D;51049;45.046;38.950;2023-05-07T08:09:10;18.53;58.75
64638;HTU21D;51049;45.046;38.950;2023-05-07T08:11:38;18.51;58.64
64638;HTU21D;51049;45.046;38.950;2023-05-07T08:14:05;18.50;58.71
64638;HTU21D;51049;45.046;38.950;2023-05-07T08:16:31;18.53;58.64
64638;HTU21D;51049;45.046;38.950;2023-05-07T08:18:59;18.54;58.59
64638;HTU21D;51049;45.046;38.950;2023-05-07T08:21:25;18.54;58.57
64638;HTU21D;51049;45.046;38.950;2023-05-07T08:23:52;18.57;58.61
64638;HTU21D;51049;45.046;38.950;2023-05-07T08:26:18;18.64;58.67
64638;HTU21D;51049;45.046;38.950;2023-05-07T08:28:44;18.76;58.54
64638;HTU21D;51049;45.046;38.950;2023-05-07T08:31:10;18.86;58.44
64638;HTU21D;51049;45.046;38.950;2023-05-07T08:33:39;18.97;58.31
64638;HTU21D;51049;45.046;38.950;2023-05-07T08:36:05;19.05;58.13
64638;HTU21D;51049;45.046;38.950;2023-05-07T08:38:31;19.15;58.13
64638;HTU21D;51049;45.046;38.950;2023-05-07T08:40:57;19.26;57.98
64638;HTU21D;51049;45.046;38.950;2023-05-07T08:43:26;19.37;57.79
64638;HTU21D;51049;45.046;38.950;2023-05-07T08:45:57;19.43;57.53
64638;HTU21D;51049;45.046;38.950;2023-05-07T08:48:29;19.43;57.39
64638;HTU21D;51049;45.046;38.950;2023-05-07T08:51:05;19.48;57.32
64638;HTU21D;51049;45.046;38.950;2023-05-07T08:53:31;19.52;57.23
64638;HTU21D;51049;45.046;38.950;2023-05-07T08:55:58;19.56;57.15
64638;HTU21D;51049;45.046;38.950;2023-05-07T08:58:25;19.63;57.14
64638;HTU21D;51049;45.046;38.950;2023-05-07T09:00:52;19.74;57.11
64638;HTU21D;51049;45.046;38.950;2023-05-07T09:03:20;19.83;56.92
64638;HTU21D;51049;45.046;38.950;2023-05-07T09:05:49;19.92;56.83
64638;HTU21D;51049;45.046;38.950;2023-05-07T09:08:18;20.00;56.64
64638;HTU21D;51049;45.046;38.950;2023-05-07T09:10:48;19.99;56.34
64638;HTU21D;51049;45.046;38.950;2023-05-07T09:13:14;19.89;56.19
64638;HTU21D;51049;45.046;38.950;2023-05-07T09:15:41;19.80;56.36
64638;HTU21D;51049;45.046;38.950;2023-05-07T09:18:07;19.71;56.41
64638;HTU21D;51049;45.046;38.950;2023-05-07T09:20:38;19.63;56.53
64638;HTU21D;51049;45.046;38.950;2023-05-07T09:23:06;19.57;56.68
64638;HTU21D;51049;45.046;38.950;2023-05-07T09:25:35;19.53;56.69
64638;HTU21D;51049;45.046;38.950;2023-05-07T09:28:06;19.48;56.72
64638;HTU21D;51049;45.046;38.950;2023-05-07T09:30:33;19.45;56.79
64638;HTU21D;51049;45.046;38.950;2023-05-07T09:33:03;19.43;56.83
64638;HTU21D;51049;45.046;38.950;2023-05-07T09:35:32;19.42;56.81
64638;HTU21D;51049;45.046;38.950;2023-05-07T09:38:04;19.39;56.81
64638;HTU21D;51049;45.046;38.950;2023-05-07T09:40:32;19.36;56.84
64638;HTU21D;51049;45.046;38.950;2023-05-07T09:43:10;19.35;56.96
64638;HTU21D;51049;45.046;38.950;2023-05-07T09:45:40;19.33;56.95
64638;HTU21D;51049;45.046;38.950;2023-05-07T09:48:07;19.38;57.02
64638;HTU21D;51049;45.046;38.950;2023-05-07T09:50:42;19.41;56.96
64638;HTU21D;51049;45.046;38.950;2023-05-07T09:53:13;19.43;56.90
64638;HTU21D;51049;45.046;38.950;2023-05-07T09:55:41;19.44;56.87
64638;HTU21D;51049;45.046;38.950;2023-05-07T09:58:07;19.42;56.84
64638;HTU21D;51049;45.046;38.950;2023-05-07T10:00:35;19.40;56.82
64638;HTU21D;51049;45.046;38.950;2023-05-07T10:03:09;19.30;56.86
64638;HTU21D;51049;45.046;38.950;2023-05-07T10:05:51;19.25;56.97
64638;HTU21D;51049;45.046;38.950;2023-05-07T10:08:19;19.21;57.09
64638;HTU21D;51049;45.046;38.950;2023-05-07T10:10:49;19.24;57.16
64638;HTU21D;51049;45.046;38.950;2023-05-07T10:13:19;19.25;57.18
64638;HTU21D;51049;45.046;38.950;2023-05-07T10:15:48;19.26;57.17
64638;HTU21D;51049;45.046;38.950;2023-05-07T10:18:15;19.26;57.19
64638;HTU21D;51049;45.046;38.950;2023-05-07T10:20:45;19.27;57.19
64638;HTU21D;51049;45.046;38.950;2023-05-07T10:23:14;19.24;57.18
64638;HTU21D;51049;45.046;38.950;2023-05-07T10:25:45;19.22;57.19
64638;HTU21D;51049;45.046;38.950;2023-05-07T10:28:19;19.17;57.24
64638;HTU21D;51049;45.046;38.950;2023-05-07T10:33:39;19.09;57.42
64638;HTU21D;51049;45.046;38.950;2023-05-07T10:36:06;19.11;57.48
64638;HTU21D;51049;45.046;38.950;2023-05-07T10:38:33;19.07;57.49
64638;HTU21D;51049;45.046;38.950;2023-05-07T10:41:01;19.00;57.60
64638;HTU21D;51049;45.046;38.950;2023-05-07T10:43:42;18.91;57.77
64638;HTU21D;51049;45.046;38.950;2023-05-07T10:46:18;18.81;57.76
64638;HTU21D;51049;45.046;38.950;2023-05-07T10:51:30;18.64;57.93
64638;HTU21D;51049;45.046;38.950;2023-05-07T10:56:47;18.55;58.21
64638;HTU21D;51049;45.046;38.950;2023-05-07T11:04:36;18.54;58.35
64638;HTU21D;51049;45.046;38.950;2023-05-07T11:07:30;18.53;58.46
64638;HTU21D;51049;45.046;38.950;2023-05-07T11:10:02;18.51;58.51
64638;HTU21D;51049;45.046;38.950;2023-05-07T11:12:55;18.52;58.51
64638;HTU21D;51049;45.046;38.950;2023-05-07T11:15:39;18.53;58.66
64638;HTU21D;51049;45.046;38.950;2023-05-07T11:18:17;18.54;58.66
64638;HTU21D;51049;45.046;38.950;2023-05-07T11:26:11;18.47;58.74
64638;HTU21D;51049;45.046;38.950;2023-05-07T11:28:40;18.40;58.96
64638;HTU21D;51049;45.046;38.950;2023-05-07T11:31:07;18.36;59.13
64638;HTU21D;51049;45.046;38.950;2023-05-07T11:33:35;18.35;59.26
64638;HTU21D;51049;45.046;38.950;2023-05-07T11:36:04;18.32;59.38
64638;HTU21D;51049;45.046;38.950;2023-05-07T11:38:38;18.27;59.54
64638;HTU21D;51049;45.046;38.950;2023-05-07T11:41:04;18.22;59.70
64638;HTU21D;51049;45.046;38.950;2023-05-07T11:43:31;18.17;60.03
64638;HTU21D;51049;45.046;38.950;2023-05-07T11:46:18;18.09;60.38
64638;HTU21D;51049;45.046;38.950;2023-05-07T11:48:44;18.03;60.38
64638;HTU21D;51049;45.046;38.950;2023-05-07T11:51:10;17.95;60.63
64638;HTU21D;51049;45.046;38.950;2023-05-07T11:53:39;17.91;60.90
64638;HTU21D;51049;45.046;38.950;2023-05-07T11:56:10;17.88;61.25
64638;HTU21D;51049;45.046;38.950;2023-05-07T11:58:36;17.89;61.33
64638;HTU21D;51049;45.046;38.950;2023-05-07T12:01:03;17.90;61.51
64638;HTU21D;51049;45.046;38.950;2023-05-07T12:03:29;17.93;61.53
64638;HTU21D;51049;45.046;38.950;2023-05-07T12:05:55;17.98;61.64
64638;HTU21D;51049;45.046;38.950;2023-05-07T12:08:21;18.02;61.80
64638;HTU21D;51049;45.046;38.950;2023-05-07T12:10:49;18.06;61.88
64638;HTU21D;51049;45.046;38.950;2023-05-07T12:13:17;18.06;61.96
64638;HTU21D;51049;45.046;38.950;2023-05-07T12:15:44;18.06;61.99
64638;HTU21D;51049;45.046;38.950;2023-05-07T12:18:11;18.02;62.29
64638;HTU21D;51049;45.046;38.950;2023-05-07T12:20:38;17.97;62.48
64638;HTU21D;51049;45.046;38.950;2023-05-07T12:23:05;17.94;62.71
64638;HTU21D;51049;45.046;38.950;2023-05-07T12:25:41;17.88;63.05
64638;HTU21D;51049;45.046;38.950;2023-05-07T12:28:17;17.80;63.05
64638;HTU21D;51049;45.046;38.950;2023-05-07T12:30:44;17.73;63.37
64638;HTU21D;51049;45.046;38.950;2023-05-07T12:33:11;17.64;63.56
64638;HTU21D;51049;45.046;38.950;2023-05-07T12:35:39;17.59;63.55
64638;HTU21D;51049;45.046;38.950;2023-05-07T12:38:11;17.51;63.73
64638;HTU21D;51049;45.046;38.950;2023-05-07T12:40:47;17.46;63.95
64638;HTU21D;51049;45.046;38.950;2023-05-07T12:43:17;17.39;64.05
64638;HTU21D;51049;45.046;38.950;2023-05-07T12:45:44;17.40;64.18
64638;HTU21D;51049;45.046;38.950;2023-05-07T12:48:11;17.39;64.24
64638;HTU21D;51049;45.046;38.950;2023-05-07T12:50:37;17.39;64.35
64638;HTU21D;51049;45.046;38.950;2023-05-07T12:53:04;17.39;64.52
64638;HTU21D;51049;45.046;38.950;2023-05-07T12:55:44;17.34;64.69
64638;HTU21D;51049;45.046;38.950;2023-05-07T13:00:48;17.31;64.83
64638;HTU21D;51049;45.046;38.950;2023-05-07T13:03:29;17.29;65.09
64638;HTU21D;51049;45.046;38.950;2023-05-07T13:05:57;17.30;65.09
64638;HTU21D;51049;45.046;38.950;2023-05-07T13:08:37;17.28;65.33
64638;HTU21D;51049;45.046;38.950;2023-05-07T13:11:07;17.34;65.25
64638;HTU21D;51049;45.046;38.950;2023-05-07T13:13:35;17.36;65.47
64638;HTU21D;51049;45.046;38.950;2023-05-07T13:16:02;17.38;65.50
64638;HTU21D;51049;45.046;38.950;2023-05-07T13:18:32;17.40;65.66
64638;HTU21D;51049;45.046;38.950;2023-05-07T13:20:58;17.43;65.54
64638;HTU21D;51049;45.046;38.950;2023-05-07T13:23:24;17.43;65.59
64638;HTU21D;51049;45.046;38.950;2023-05-07T13:25:50;17.47;65.66
64638;HTU21D;51049;45.046;38.950;2023-05-07T13:28:19;17.46;65.74
64638;HTU21D;51049;45.046;38.950;2023-05-07T13:30:46;17.41;65.72
64638;HTU21D;51049;45.046;38.950;2023-05-07T13:33:12;17.38;65.87
64638;HTU21D;51049;45.046;38.950;2023-05-07T13:35:38;17.35;65.95
64638;HTU21D;51049;45.046;38.950;2023-05-07T13:38:05;17.33;66.11
64638;HTU21D;51049;45.046;38.950;2023-05-07T13:40:31;17.31;66.01
64638;HTU21D;51049;45.046;38.950;2023-05-07T13:42:58;17.26;66.10
64638;HTU21D;51049;45.046;38.950;2023-05-07T13:45:26;17.24;66.10
64638;HTU21D;51049;45.046;38.950;2023-05-07T13:47:52;17.21;66.17
64638;HTU21D;51049;45.046;38.950;2023-05-07T13:50:18;17.19;66.23
64638;HTU21D;51049;45.046;38.950;2023-05-07T13:52:44;17.20;66.33
64638;HTU21D;51049;45.046;38.950;2023-05-07T13:55:20;17.18;66.35
64638;HTU21D;51049;45.046;38.950;2023-05-07T13:57:46;17.18;66.46
64638;HTU21D;51049;45.046;38.950;2023-05-07T14:00:13;17.16;66.43
64638;HTU21D;51049;45.046;38.950;2023-05-07T14:02:43;17.16;66.35
64638;HTU21D;51049;45.046;38.950;2023-05-07T14:05:09;17.16;66.38
64638;HTU21D;51049;45.046;38.950;2023-05-07T14:07:36;17.17;66.30
64638;HTU21D;51049;45.046;38.950;2023-05-07T14:10:02;17.16;66.50
64638;HTU21D;51049;45.046;38.950;2023-05-07T14:12:28;17.15;66.46
64638;HTU21D;51049;45.046;38.950;2023-05-07T14:14:54;17.15;66.49
64638;HTU21D;51049;45.046;38.950;2023-05-07T14:17:20;17.17;66.49
64638;HTU21D;51049;45.046;38.950;2023-05-07T14:19:48;17.14;66.53
64638;HTU21D;51049;45.046;38.950;2023-05-07T14:22:14;17.14;66.44
64638;HTU21D;51049;45.046;38.950;2023-05-07T14:24:41;17.11;66.54
64638;HTU21D;51049;45.046;38.950;2023-05-07T14:27:07;17.09;66.61
64638;HTU21D;51049;45.046;38.950;2023-05-07T14:29:33;17.09;66.65
64638;HTU21D;51049;45.046;38.950;2023-05-07T14:32:01;17.10;66.62
64638;HTU21D;51049;45.046;38.950;2023-05-07T14:34:27;17.10;66.94
64638;HTU21D;51049;45.046;38.950;2023-05-07T14:36:53;17.11;66.75
64638;HTU21D;51049;45.046;38.950;2023-05-07T14:39:19;17.13;66.69
64638;HTU21D;51049;45.046;38.950;2023-05-07T14:41:45;17.11;66.88
64638;HTU21D;51049;45.046;38.950;2023-05-07T14:44:11;17.10;66.81
64638;HTU21D;51049;45.046;38.950;2023-05-07T14:46:37;17.10;66.74
64638;HTU21D;51049;45.046;38.950;2023-05-07T14:49:03;17.07;66.77
64638;HTU21D;51049;45.046;38.950;2023-05-07T14:51:29;17.07;66.81
64638;HTU21D;51049;45.046;38.950;2023-05-07T14:53:55;17.04;66.86
64638;HTU21D;51049;45.046;38.950;2023-05-07T14:56:21;17.06;66.90
64638;HTU21D;51049;45.046;38.950;2023-05-07T14:58:47;17.04;67.20
64638;HTU21D;51049;45.046;38.950;2023-05-07T15:01:14;17.02;67.20
64638;HTU21D;51049;45.046;38.950;2023-05-07T15:03:40;16.99;67.08
64638;HTU21D;51049;45.046;38.950;2023-05-07T15:06:06;16.98;67.10
64638;HTU21D;51049;45.046;38.950;2023-05-07T15:08:32;16.95;67.33
64638;HTU21D;51049;45.046;38.950;2023-05-07T15:10:58;16.91;67.23
64638;HTU21D;51049;45.046;38.950;2023-05-07T15:13:24;16.90;67.33
64638;HTU21D;51049;45.046;38.950;2023-05-07T15:15:50;16.88;67.41
64638;HTU21D;51049;45.046;38.950;2023-05-07T15:18:16;16.82;67.36
64638;HTU21D;51049;45.046;38.950;2023-05-07T15:20:42;16.80;67.39
64638;HTU21D;51049;45.046;38.950;2023-05-07T15:23:09;16.78;67.33
64638;HTU21D;51049;45.046;38.950;2023-05-07T15:25:42;16.75;67.41
64638;HTU21D;51049;45.046;38.950;2023-05-07T15:28:08;16.71;67.59
64638;HTU21D;51049;45.046;38.950;2023-05-07T15:30:34;16.66;67.46